sensor_id;sensor_type;location;lat;lon;timestamp;pressure;altitude;pressure_sealevel;temperature;humidity
43364;BME280;40636;52.424;-1.948;2023-04-12T00:00:36;97817.47;;;4.81;100.00
43364;BME280;40636;52.424;-1.948;2023-04-12T00:03:04;97828.06;;;4.78;100.00
43364;BME280;40636;52.424;-1.948;2023-04-12T00:05:32;97823.66;;;4.72;100.00
43364;BME280;40636;52.424;-1.948;2023-04-12T00:07:59;97819.88;;;4.73;100.00
43364;BME280;40636;52.424;-1.948;2023-04-12T00:10:30;97818.78;;;4.69;100.00
43364;BME280;40636;52.424;-1.948;2023-04-12T00:12:57;97833.41;;;4.68;100.00
43364;BME280;40636;52.424;-1.948;2023-04-12T00:15:23;97830.16;;;4.66;100.00
43364;BME280;40636;52.424;-1.948;2023-04-12T00:17:50;97833.97;;;4.65;100.00
43364;BME280;40636;52.424;-1.948;2023-04-12T00:20:17;97843.72;;;4.61;100.00
43364;BME280;40636;52.424;-1.948;2023-04-12T00:22:44;97844.03;;;4.69;100.00
43364;BME280;40636;52.424;-1.948;2023-04-12T00:25:10;97851.94;;;4.76;100.00
43364;BME280;40636;52.424;-1.948;2023-04-12T00:27:37;97853.03;;;4.80;100.00
43364;BME280;40636;52.424;-1.948;2023-04-12T00:30:06;97849.25;;;4.81;100.00
43364;BME280;40636;52.424;-1.948;2023-04-12T00:32:33;97872.06;;;4.80;100.00
43364;BME280;40636;52.424;-1.948;2023-04-12T00:35:00;97862.25;;;4.69;100.00
43364;BME280;40636;52.424;-1.948;2023-04-12T00:37:27;97883.09;;;4.63;100.00
43364;BME280;40636;52.424;-1.948;2023-04-12T00:39:54;97895.75;;;4.42;100.00
43364;BME280;40636;52.424;-1.948;2023-04-12T00:42:20;97894.47;;;4.18;100.00
43364;BME280;40636;52.424;-1.948;2023-04-12T00:44:47;97870.94;;;3.91;100.00
43364;BME280;40636;52.424;-1.948;2023-04-12T00:47:14;97858.50;;;3.95;100.00
43364;BME280;40636;52.424;-1.948;2023-04-12T00:49:41;97851.84;;;3.81;100.00
43364;BME280;40636;52.424;-1.948;2023-04-12T00:52:07;97845.22;;;3.67;100.00
43364;BME280;40636;52.424;-1.948;2023-04-12T00:54:36;97843.50;;;3.55;100.00
43364;BME280;40636;52.424;-1.948;2023-04-12T00:57:02;97837.47;;;3.48;100.00
43364;BME280;40636;52.424;-1.948;2023-04-12T00:59:29;97837.38;;;3.38;100.00
43364;BME280;40636;52.424;-1.948;2023-04-12T01:01:57;97841.03;;;3.27;100.00
43364;BME280;40636;52.424;-1.948;2023-04-12T01:04:25;97846.22;;;3.28;100.00
43364;BME280;40636;52.424;-1.948;2023-04-12T01:10:02;97840.00;;;3.06;100.00
43364;BME280;40636;52.424;-1.948;2023-04-12T01:15:18;97831.00;;;3.00;100.00
43364;BME280;40636;52.424;-1.948;2023-04-12T01:17:58;97828.81;;;2.97;100.00
43364;BME280;40636;52.424;-1.948;2023-04-12T01:20:31;97828.09;;;2.85;100.00
43364;BME280;40636;52.424;-1.948;2023-04-12T01:28:16;97816.41;;;2.79;100.00
43364;BME280;40636;52.424;-1.948;2023-04-12T01:30:47;97818.72;;;2.71;100.00
43364;BME280;40636;52.424;-1.948;2023-04-12T01:33:16;97813.31;;;2.71;100.00
43364;BME280;40636;52.424;-1.948;2023-04-12T01:35:45;97813.06;;;2.72;100.00
43364;BME280;40636;52.424;-1.948;2023-04-12T01:38:13;97801.94;;;2.69;100.00
43364;BME280;40636;52.424;-1.948;2023-04-12T01:40:40;97797.06;;;2.71;100.00
43364;BME280;40636;52.424;-1.948;2023-04-12T01:43:09;97799.47;;;2.67;100.00
43364;BME280;40636;52.424;-1.948;2023-04-12T01:45:36;97803.34;;;2.76;100.00
43364;BME280;40636;52.424;-1.948;2023-04-12T01:48:05;97804.75;;;2.79;100.00
43364;BME280;40636;52.424;-1.948;2023-04-12T01:50:59;97804.50;;;2.80;100.00
43364;BME280;40636;52.424;-1.948;2023-04-12T01:53:34;97808.53;;;2.78;100.00
43364;BME280;40636;52.424;-1.948;2023-04-12T01:56:08;97809.59;;;2.77;100.00
43364;BME280;40636;52.424;-1.948;2023-04-12T01:58:38;97799.28;;;2.74;100.00
43364;BME280;40636;52.424;-1.948;2023-04-12T02:01:06;97810.94;;;2.74;100.00
43364;BME280;40636;52.424;-1.948;2023-04-12T02:03:34;97803.94;;;2.78;100.00
43364;BME280;40636;52.424;-1.948;2023-04-12T02:06:04;97794.84;;;2.68;100.00
43364;BME280;40636;52.424;-1.948;2023-04-12T02:08:31;97799.78;;;2.71;100.00
43364;BME280;40636;52.424;-1.948;2023-04-12T02:10:58;97800.03;;;2.69;100.00
43364;BME280;40636;52.424;-1.948;2023-04-12T02:13:25;97796.25;;;2.70;100.00
43364;BME280;40636;52.424;-1.948;2023-04-12T02:15:54;97797.34;;;2.69;100.00
43364;BME280;40636;52.424;-1.948;2023-04-12T02:18:20;97791.59;;;2.66;100.00
43364;BME280;40636;52.424;-1.948;2023-04-12T02:20:49;97780.75;;;2.66;100.00
43364;BME280;40636;52.424;-1.948;2023-04-12T02:23:16;97790.78;;;2.65;100.00
43364;BME280;40636;52.424;-1.948;2023-04-12T02:25:43;97791.59;;;2.66;100.00
43364;BME280;40636;52.424;-1.948;2023-04-12T02:28:12;97783.22;;;2.67;100.00
43364;BME280;40636;52.424;-1.948;2023-04-12T02:30:39;97788.34;;;2.64;100.00
43364;BME280;40636;52.424;-1.948;2023-04-12T02:33:07;97773.50;;;2.71;100.00
43364;BME280;40636;52.424;-1.948;2023-04-12T02:35:35;97769.13;;;2.65;100.00
43364;BME280;40636;52.424;-1.948;2023-04-12T02:38:01;97764.03;;;2.69;100.00
43364;BME280;40636;52.424;-1.948;2023-04-12T02:40:37;97771.06;;;2.70;100.00
43364;BME280;40636;52.424;-1.948;2023-04-12T02:43:06;97767.50;;;2.64;100.00
43364;BME280;40636;52.424;-1.948;2023-04-12T02:45:33;97777.03;;;2.72;100.00
43364;BME280;40636;52.424;-1.948;2023-04-12T02:47:59;97768.41;;;2.75;100.00
43364;BME280;40636;52.424;-1.948;2023-04-12T02:50:27;97768.41;;;2.75;100.00
43364;BME280;40636;52.424;-1.948;2023-04-12T02:52:54;97759.09;;;2.66;100.00
43364;BME280;40636;52.424;-1.948;2023-04-12T02:55:20;97765.28;;;2.61;100.00
43364;BME280;40636;52.424;-1.948;2023-04-12T02:57:47;97763.06;;;2.58;100.00
43364;BME280;40636;52.424;-1.948;2023-04-12T03:00:14;97758.41;;;2.53;100.00
43364;BME280;40636;52.424;-1.948;2023-04-12T03:02:42;97759.53;;;2.58;100.00
43364;BME280;40636;52.424;-1.948;2023-04-12T03:05:09;97761.19;;;2.59;100.00
43364;BME280;40636;52.424;-1.948;2023-04-12T03:07:36;97760.41;;;2.63;100.00
43364;BME280;40636;52.424;-1.948;2023-04-12T03:10:03;97758.56;;;2.64;100.00
43364;BME280;40636;52.424;-1.948;2023-04-12T03:12:33;97761.25;;;2.64;100.00
43364;BME280;40636;52.424;-1.948;2023-04-12T03:15:00;97762.88;;;2.65;100.00
43364;BME280;40636;52.424;-1.948;2023-04-12T03:17:27;97762.88;;;2.65;100.00
43364;BME280;40636;52.424;-1.948;2023-04-12T03:19:54;97761.38;;;2.74;100.00
43364;BME280;40636;52.424;-1.948;2023-04-12T03:22:20;97759.53;;;2.79;100.00
43364;BME280;40636;52.424;-1.948;2023-04-12T03:24:48;97758.50;;;2.86;100.00
43364;BME280;40636;52.424;-1.948;2023-04-12T03:27:15;97760.72;;;2.89;100.00
43364;BME280;40636;52.424;-1.948;2023-04-12T03:29:42;97759.94;;;2.93;100.00
43364;BME280;40636;52.424;-1.948;2023-04-12T03:32:08;97757.28;;;2.98;100.00
43364;BME280;40636;52.424;-1.948;2023-04-12T03:34:35;97757.88;;;3.00;100.00
43364;BME280;40636;52.424;-1.948;2023-04-12T03:37:02;97754.56;;;2.98;100.00
43364;BME280;40636;52.424;-1.948;2023-04-12T03:39:29;97753.97;;;2.91;100.00
43364;BME280;40636;52.424;-1.948;2023-04-12T03:41:56;97754.75;;;2.87;100.00
43364;BME280;40636;52.424;-1.948;2023-04-12T03:44:22;97756.88;;;2.85;100.00
43364;BME280;40636;52.424;-1.948;2023-04-12T03:46:51;97760.06;;;2.82;100.00
43364;BME280;40636;52.424;-1.948;2023-04-12T03:49:18;97753.56;;;2.77;100.00
43364;BME280;40636;52.424;-1.948;2023-04-12T03:51:45;97750.84;;;2.77;100.00
43364;BME280;40636;52.424;-1.948;2023-04-12T03:54:12;97750.22;;;2.70;100.00
43364;BME280;40636;52.424;-1.948;2023-04-12T03:56:38;97745.06;;;2.69;100.00
43364;BME280;40636;52.424;-1.948;2023-04-12T03:59:05;97744.00;;;2.70;100.00
43364;BME280;40636;52.424;-1.948;2023-04-12T04:01:35;97739.84;;;2.62;100.00
43364;BME280;40636;52.424;-1.948;2023-04-12T04:04:02;97734.69;;;2.61;100.00
43364;BME280;40636;52.424;-1.948;2023-04-12T04:06:29;97724.66;;;2.61;100.00
43364;BME280;40636;52.424;-1.948;2023-04-12T04:08:56;97726.81;;;2.59;100.00
43364;BME280;40636;52.424;-1.948;2023-04-12T04:11:24;97721.91;;;2.56;100.00
43364;BME280;40636;52.424;-1.948;2023-04-12T04:13:51;97721.41;;;2.59;100.00
43364;BME280;40636;52.424;-1.948;2023-04-12T04:16:17;97719.81;;;2.63;100.00
43364;BME280;40636;52.424;-1.948;2023-04-12T04:18:44;97712.00;;;2.67;100.00
43364;BME280;40636;52.424;-1.948;2023-04-12T04:21:11;97705.25;;;2.69;100.00
43364;BME280;40636;52.424;-1.948;2023-04-12T04:23:40;97699.53;;;2.66;100.00
43364;BME280;40636;52.424;-1.948;2023-04-12T04:26:11;97690.66;;;2.70;100.00
43364;BME280;40636;52.424;-1.948;2023-04-12T04:28:39;97686.31;;;2.69;100.00
43364;BME280;40636;52.424;-1.948;2023-04-12T04:31:11;97685.69;;;2.62;100.00
43364;BME280;40636;52.424;-1.948;2023-04-12T04:33:38;97694.03;;;2.56;100.00
43364;BME280;40636;52.424;-1.948;2023-04-12T04:36:07;97684.19;;;2.49;100.00
43364;BME280;40636;52.424;-1.948;2023-04-12T04:38:35;97676.84;;;2.45;100.00
43364;BME280;40636;52.424;-1.948;2023-04-12T04:41:02;97668.97;;;2.43;100.00
43364;BME280;40636;52.424;-1.948;2023-04-12T04:43:29;97677.03;;;2.38;100.00
43364;BME280;40636;52.424;-1.948;2023-04-12T04:45:56;97678.63;;;2.34;100.00
43364;BME280;40636;52.424;-1.948;2023-04-12T04:48:23;97669.38;;;2.30;100.00
43364;BME280;40636;52.424;-1.948;2023-04-12T04:50:50;97677.75;;;2.28;100.00
43364;BME280;40636;52.424;-1.948;2023-04-12T04:53:20;97673.16;;;2.29;100.00
43364;BME280;40636;52.424;-1.948;2023-04-12T04:55:47;97674.72;;;2.25;100.00
43364;BME280;40636;52.424;-1.948;2023-04-12T04:58:14;97672.06;;;2.30;100.00
43364;BME280;40636;52.424;-1.948;2023-04-12T05:00:42;97662.31;;;2.29;100.00
43364;BME280;40636;52.424;-1.948;2023-04-12T05:03:11;97665.78;;;2.24;100.00
43364;BME280;40636;52.424;-1.948;2023-04-12T05:05:38;97672.50;;;2.22;100.00
43364;BME280;40636;52.424;-1.948;2023-04-12T05:08:05;97672.50;;;2.22;100.00
43364;BME280;40636;52.424;-1.948;2023-04-12T05:10:32;97670.06;;;2.20;100.00
43364;BME280;40636;52.424;-1.948;2023-04-12T05:12:58;97671.66;;;2.16;100.00
43364;BME280;40636;52.424;-1.948;2023-04-12T05:15:25;97671.91;;;2.15;100.00
43364;BME280;40636;52.424;-1.948;2023-04-12T05:17:52;97668.13;;;2.16;100.00
43364;BME280;40636;52.424;-1.948;2023-04-12T05:20:19;97676.25;;;2.16;100.00
43364;BME280;40636;52.424;-1.948;2023-04-12T05:22:45;97669.44;;;2.13;100.00
43364;BME280;40636;52.424;-1.948;2023-04-12T05:25:12;97667.47;;;2.09;100.00
43364;BME280;40636;52.424;-1.948;2023-04-12T05:27:39;97661.78;;;2.05;100.00
43364;BME280;40636;52.424;-1.948;2023-04-12T05:30:06;97663.09;;;2.02;100.00
43364;BME280;40636;52.424;-1.948;2023-04-12T05:32:34;97663.59;;;1.99;100.00
43364;BME280;40636;52.424;-1.948;2023-04-12T05:35:01;97658.69;;;1.96;100.00
43364;BME280;40636;52.424;-1.948;2023-04-12T05:37:27;97658.44;;;1.98;100.00
43364;BME280;40636;52.424;-1.948;2023-04-12T05:39:54;97650.53;;;1.91;100.00
43364;BME280;40636;52.424;-1.948;2023-04-12T05:42:21;97649.94;;;1.89;100.00
43364;BME280;40636;52.424;-1.948;2023-04-12T05:44:48;97647.56;;;1.93;100.00
43364;BME280;40636;52.424;-1.948;2023-04-12T05:47:16;97651.56;;;1.90;100.00
43364;BME280;40636;52.424;-1.948;2023-04-12T05:49:42;97648.44;;;1.98;100.00
43364;BME280;40636;52.424;-1.948;2023-04-12T05:52:09;97656.88;;;2.02;100.00
43364;BME280;40636;52.424;-1.948;2023-04-12T05:54:36;97659.78;;;1.95;100.00
43364;BME280;40636;52.424;-1.948;2023-04-12T05:57:02;97659.31;;;2.03;100.00
43364;BME280;40636;52.424;-1.948;2023-04-12T05:59:29;97659.63;;;2.07;100.00
43364;BME280;40636;52.424;-1.948;2023-04-12T06:01:56;97660.44;;;2.08;100.00
43364;BME280;40636;52.424;-1.948;2023-04-12T06:04:24;97668.06;;;2.11;100.00
43364;BME280;40636;52.424;-1.948;2023-04-12T06:07:11;97656.22;;;2.17;100.00
43364;BME280;40636;52.424;-1.948;2023-04-12T06:09:38;97653.94;;;2.31;100.00
43364;BME280;40636;52.424;-1.948;2023-04-12T06:12:05;97658.38;;;2.37;100.00
43364;BME280;40636;52.424;-1.948;2023-04-12T06:14:32;97662.03;;;2.52;100.00
43364;BME280;40636;52.424;-1.948;2023-04-12T06:16:59;97660.81;;;2.65;100.00
43364;BME280;40636;52.424;-1.948;2023-04-12T06:19:25;97661.72;;;2.76;100.00
43364;BME280;40636;52.424;-1.948;2023-04-12T06:21:52;97632.53;;;2.83;100.00
43364;BME280;40636;52.424;-1.948;2023-04-12T06:24:19;97626.56;;;2.81;100.00
43364;BME280;40636;52.424;-1.948;2023-04-12T06:26:46;97621.75;;;2.88;100.00
43364;BME280;40636;52.424;-1.948;2023-04-12T06:29:13;97634.75;;;2.86;100.00
43364;BME280;40636;52.424;-1.948;2023-04-12T06:31:40;97632.09;;;2.91;100.00
43364;BME280;40636;52.424;-1.948;2023-04-12T06:34:06;97620.13;;;2.87;100.00
43364;BME280;40636;52.424;-1.948;2023-04-12T06:36:33;97627.47;;;2.92;100.00
43364;BME280;40636;52.424;-1.948;2023-04-12T06:39:00;97613.69;;;2.98;100.00
43364;BME280;40636;52.424;-1.948;2023-04-12T06:41:26;97598.41;;;3.19;100.00
43364;BME280;40636;52.424;-1.948;2023-04-12T06:43:53;97590.06;;;3.26;100.00
43364;BME280;40636;52.424;-1.948;2023-04-12T06:46:26;97590.13;;;3.36;100.00
43364;BME280;40636;52.424;-1.948;2023-04-12T06:48:53;97589.06;;;3.42;100.00
43364;BME280;40636;52.424;-1.948;2023-04-12T06:51:21;97592.09;;;3.46;100.00
43364;BME280;40636;52.424;-1.948;2023-04-12T06:53:47;97578.25;;;3.47;100.00
43364;BME280;40636;52.424;-1.948;2023-04-12T06:56:14;97572.03;;;3.52;100.00
43364;BME280;40636;52.424;-1.948;2023-04-12T06:58:44;97575.28;;;3.54;100.00
43364;BME280;40636;52.424;-1.948;2023-04-12T07:01:11;97564.44;;;3.54;100.00
43364;BME280;40636;52.424;-1.948;2023-04-12T07:03:40;97568.84;;;3.65;100.00
43364;BME280;40636;52.424;-1.948;2023-04-12T07:06:06;97564.25;;;3.71;100.00
43364;BME280;40636;52.424;-1.948;2023-04-12T07:08:50;97569.19;;;3.84;100.00
43364;BME280;40636;52.424;-1.948;2023-04-12T07:11:16;97568.09;;;3.80;100.00
43364;BME280;40636;52.424;-1.948;2023-04-12T07:13:47;97567.00;;;3.76;100.00
43364;BME280;40636;52.424;-1.948;2023-04-12T07:16:14;97567.28;;;3.79;100.00
43364;BME280;40636;52.424;-1.948;2023-04-12T07:18:41;97564.59;;;3.85;100.00
43364;BME280;40636;52.424;-1.948;2023-04-12T07:21:08;97563.25;;;3.87;100.00
43364;BME280;40636;52.424;-1.948;2023-04-12T07:23:35;97560.53;;;3.82;100.00
43364;BME280;40636;52.424;-1.948;2023-04-12T07:26:03;97544.56;;;3.91;100.00
43364;BME280;40636;52.424;-1.948;2023-04-12T07:28:30;97552.69;;;3.91;100.00
43364;BME280;40636;52.424;-1.948;2023-04-12T07:30:57;97549.75;;;4.13;100.00
43364;BME280;40636;52.424;-1.948;2023-04-12T07:33:25;97541.34;;;4.19;100.00
43364;BME280;40636;52.424;-1.948;2023-04-12T07:35:52;97542.47;;;4.28;100.00
43364;BME280;40636;52.424;-1.948;2023-04-12T07:38:18;97535.69;;;4.41;100.00
43364;BME280;40636;52.424;-1.948;2023-04-12T07:40:45;97540.03;;;4.52;100.00
43364;BME280;40636;52.424;-1.948;2023-04-12T07:43:15;97524.28;;;4.65;100.00
43364;BME280;40636;52.424;-1.948;2023-04-12T07:45:42;97519.38;;;4.72;100.00
43364;BME280;40636;52.424;-1.948;2023-04-12T07:48:10;97513.69;;;4.78;100.00
43364;BME280;40636;52.424;-1.948;2023-04-12T07:50:39;97493.31;;;4.86;100.00
43364;BME280;40636;52.424;-1.948;2023-04-12T07:53:27;97502.81;;;4.89;100.00
43364;BME280;40636;52.424;-1.948;2023-04-12T07:55:55;97497.38;;;4.89;100.00
43364;BME280;40636;52.424;-1.948;2023-04-12T07:58:23;97486.22;;;4.90;100.00
43364;BME280;40636;52.424;-1.948;2023-04-12T08:00:52;97480.22;;;4.98;100.00
43364;BME280;40636;52.424;-1.948;2023-04-12T08:03:19;97472.66;;;4.95;100.00
43364;BME280;40636;52.424;-1.948;2023-04-12T08:05:46;97465.53;;;4.99;100.00
43364;BME280;40636;52.424;-1.948;2023-04-12T08:08:19;97453.84;;;5.04;100.00
43364;BME280;40636;52.424;-1.948;2023-04-12T08:10:49;97448.16;;;5.05;100.00
43364;BME280;40636;52.424;-1.948;2023-04-12T08:13:16;97450.00;;;5.20;100.00
43364;BME280;40636;52.424;-1.948;2023-04-12T08:15:43;97440.72;;;5.26;100.00
43364;BME280;40636;52.424;-1.948;2023-04-12T08:18:10;97428.50;;;5.24;100.00
43364;BME280;40636;52.424;-1.948;2023-04-12T08:20:37;97446.41;;;5.35;100.00
43364;BME280;40636;52.424;-1.948;2023-04-12T08:23:10;97437.13;;;5.46;100.00
43364;BME280;40636;52.424;-1.948;2023-04-12T08:25:37;97434.13;;;5.48;100.00
43364;BME280;40636;52.424;-1.948;2023-04-12T08:28:04;97431.09;;;5.49;100.00
43364;BME280;40636;52.424;-1.948;2023-04-12T08:30:33;97423.81;;;5.40;100.00
43364;BME280;40636;52.424;-1.948;2023-04-12T08:33:00;97418.94;;;5.37;100.00
43364;BME280;40636;52.424;-1.948;2023-04-12T08:35:27;97417.78;;;5.48;100.00
43364;BME280;40636;52.424;-1.948;2023-04-12T08:37:53;97416.38;;;5.60;100.00
43364;BME280;40636;52.424;-1.948;2023-04-12T08:40:20;97389.09;;;5.71;100.00
43364;BME280;40636;52.424;-1.948;2023-04-12T08:42:47;97372.63;;;5.96;100.00
43364;BME280;40636;52.424;-1.948;2023-04-12T08:45:14;97353.78;;;6.05;100.00
43364;BME280;40636;52.424;-1.948;2023-04-12T08:47:42;97345.28;;;6.12;100.00
43364;BME280;40636;52.424;-1.948;2023-04-12T08:50:11;97350.97;;;6.15;100.00
43364;BME280;40636;52.424;-1.948;2023-04-12T08:52:40;97340.50;;;6.27;100.00
43364;BME280;40636;52.424;-1.948;2023-04-12T08:55:08;97342.09;;;6.33;100.00
43364;BME280;40636;52.424;-1.948;2023-04-12T08:57:35;97329.69;;;6.46;100.00
43364;BME280;40636;52.424;-1.948;2023-04-12T09:00:07;97324.94;;;6.81;100.00
43364;BME280;40636;52.424;-1.948;2023-04-12T09:02:35;97317.34;;;7.02;100.00
43364;BME280;40636;52.424;-1.948;2023-04-12T09:05:05;97308.47;;;6.91;100.00
43364;BME280;40636;52.424;-1.948;2023-04-12T09:07:34;97305.22;;;6.89;100.00
43364;BME280;40636;52.424;-1.948;2023-04-12T09:10:02;97302.97;;;6.96;100.00
43364;BME280;40636;52.424;-1.948;2023-04-12T09:12:30;97290.38;;;7.00;100.00
43364;BME280;40636;52.424;-1.948;2023-04-12T09:15:13;97290.88;;;7.02;100.00
43364;BME280;40636;52.424;-1.948;2023-04-12T09:17:43;97284.31;;;7.03;100.00
43364;BME280;40636;52.424;-1.948;2023-04-12T09:22:44;97268.25;;;7.21;100.00
43364;BME280;40636;52.424;-1.948;2023-04-12T09:25:13;97263.41;;;7.18;100.00
43364;BME280;40636;52.424;-1.948;2023-04-12T09:27:51;97266.81;;;7.09;100.00
43364;BME280;40636;52.424;-1.948;2023-04-12T09:30:19;97263.03;;;6.86;100.00
43364;BME280;40636;52.424;-1.948;2023-04-12T09:32:46;97267.22;;;6.55;100.00
43364;BME280;40636;52.424;-1.948;2023-04-12T09:35:16;97249.03;;;6.50;100.00
43364;BME280;40636;52.424;-1.948;2023-04-12T09:37:44;97238.63;;;6.52;100.00
43364;BME280;40636;52.424;-1.948;2023-04-12T09:40:11;97231.03;;;6.49;100.00
43364;BME280;40636;52.424;-1.948;2023-04-12T09:42:51;97223.16;;;6.48;100.00
43364;BME280;40636;52.424;-1.948;2023-04-12T09:45:23;97210.97;;;6.40;100.00
43364;BME280;40636;52.424;-1.948;2023-04-12T09:47:52;97187.00;;;6.42;100.00
43364;BME280;40636;52.424;-1.948;2023-04-12T09:50:21;97189.66;;;6.47;100.00
43364;BME280;40636;52.424;-1.948;2023-04-12T09:52:48;97184.78;;;6.44;100.00
43364;BME280;40636;52.424;-1.948;2023-04-12T09:55:16;97174.53;;;6.60;100.00
43364;BME280;40636;52.424;-1.948;2023-04-12T09:57:43;97156.41;;;6.88;100.00
43364;BME280;40636;52.424;-1.948;2023-04-12T10:00:12;97156.09;;;7.08;100.00
43364;BME280;40636;52.424;-1.948;2023-04-12T10:02:49;97139.59;;;7.19;100.00
43364;BME280;40636;52.424;-1.948;2023-04-12T10:05:22;97143.63;;;7.21;100.00
43364;BME280;40636;52.424;-1.948;2023-04-12T10:07:52;97134.28;;;7.41;100.00
43364;BME280;40636;52.424;-1.948;2023-04-12T10:10:19;97126.25;;;7.63;100.00
43364;BME280;40636;52.424;-1.948;2023-04-12T10:12:48;97090.78;;;7.91;100.00
43364;BME280;40636;52.424;-1.948;2023-04-12T10:15:16;97113.44;;;8.05;100.00
43364;BME280;40636;52.424;-1.948;2023-04-12T10:17:46;97090.59;;;7.87;100.00
43364;BME280;40636;52.424;-1.948;2023-04-12T10:20:16;97086.53;;;7.85;100.00
43364;BME280;40636;52.424;-1.948;2023-04-12T10:22:48;97092.41;;;7.65;100.00
43364;BME280;40636;52.424;-1.948;2023-04-12T10:25:17;97093.69;;;7.53;100.00
43364;BME280;40636;52.424;-1.948;2023-04-12T10:27:45;97071.13;;;7.34;100.00
43364;BME280;40636;52.424;-1.948;2023-04-12T10:35:49;97078.75;;;6.85;100.00
43364;BME280;40636;52.424;-1.948;2023-04-12T10:38:18;97078.34;;;6.59;100.00
43364;BME280;40636;52.424;-1.948;2023-04-12T10:41:12;97084.59;;;6.60;100.00
43364;BME280;40636;52.424;-1.948;2023-04-12T10:43:46;97063.41;;;6.38;100.00
43364;BME280;40636;52.424;-1.948;2023-04-12T10:49:10;97080.94;;;6.08;100.00
43364;BME280;40636;52.424;-1.948;2023-04-12T10:51:37;97083.47;;;6.04;100.00
43364;BME280;40636;52.424;-1.948;2023-04-12T10:56:37;97057.50;;;6.12;100.00
43364;BME280;40636;52.424;-1.948;2023-04-12T10:59:08;97048.44;;;6.17;100.00
43364;BME280;40636;52.424;-1.948;2023-04-12T11:01:36;97039.13;;;6.23;100.00
43364;BME280;40636;52.424;-1.948;2023-04-12T11:09:23;97044.03;;;6.02;100.00
43364;BME280;40636;52.424;-1.948;2023-04-12T11:14:48;97034.34;;;5.91;100.00
43364;BME280;40636;52.424;-1.948;2023-04-12T11:19:43;97006.59;;;5.70;100.00
43364;BME280;40636;52.424;-1.948;2023-04-12T11:22:12;97006.72;;;5.59;100.00
43364;BME280;40636;52.424;-1.948;2023-04-12T11:24:42;96995.69;;;5.70;100.00
43364;BME280;40636;52.424;-1.948;2023-04-12T11:27:09;96990.72;;;5.77;100.00
43364;BME280;40636;52.424;-1.948;2023-04-12T11:29:36;97006.31;;;5.90;100.00
43364;BME280;40636;52.424;-1.948;2023-04-12T11:32:04;96992.19;;;5.88;100.00
43364;BME280;40636;52.424;-1.948;2023-04-12T11:34:35;96975.28;;;5.91;100.00
43364;BME280;40636;52.424;-1.948;2023-04-12T11:37:04;96964.28;;;6.01;100.00
43364;BME280;40636;52.424;-1.948;2023-04-12T11:39:38;96950.44;;;6.17;100.00
43364;BME280;40636;52.424;-1.948;2023-04-12T11:42:05;96945.44;;;6.24;100.00
43364;BME280;40636;52.424;-1.948;2023-04-12T11:44:34;96939.31;;;6.32;100.00
43364;BME280;40636;52.424;-1.948;2023-04-12T11:47:22;96938.03;;;6.43;100.00
43364;BME280;40636;52.424;-1.948;2023-04-12T11:49:54;96928.47;;;6.46;100.00
43364;BME280;40636;52.424;-1.948;2023-04-12T11:52:28;96935.63;;;6.42;100.00
43364;BME280;40636;52.424;-1.948;2023-04-12T11:54:59;96922.31;;;6.54;100.00
43364;BME280;40636;52.424;-1.948;2023-04-12T11:57:26;96922.38;;;6.68;100.00
43364;BME280;40636;52.424;-1.948;2023-04-12T11:59:56;96914.28;;;6.76;100.00
43364;BME280;40636;52.424;-1.948;2023-04-12T12:02:25;96909.75;;;6.85;100.00
43364;BME280;40636;52.424;-1.948;2023-04-12T12:04:58;96896.56;;;6.93;100.00
43364;BME280;40636;52.424;-1.948;2023-04-12T12:07:26;96901.41;;;6.96;100.00
43364;BME280;40636;52.424;-1.948;2023-04-12T12:09:55;96899.97;;;7.12;100.00
43364;BME280;40636;52.424;-1.948;2023-04-12T12:12:24;96889.78;;;7.31;100.00
43364;BME280;40636;52.424;-1.948;2023-04-12T12:14:52;96875.63;;;7.43;100.00
43364;BME280;40636;52.424;-1.948;2023-04-12T12:17:19;96871.28;;;7.42;100.00
43364;BME280;40636;52.424;-1.948;2023-04-12T12:19:47;96867.06;;;7.36;100.00
43364;BME280;40636;52.424;-1.948;2023-04-12T12:24:45;96857.28;;;7.07;100.00
43364;BME280;40636;52.424;-1.948;2023-04-12T12:27:16;96848.19;;;6.98;100.00
43364;BME280;40636;52.424;-1.948;2023-04-12T12:29:53;96824.06;;;6.92;100.00
43364;BME280;40636;52.424;-1.948;2023-04-12T12:32:21;96832.34;;;6.86;100.00
43364;BME280;40636;52.424;-1.948;2023-04-12T12:34:55;96835.88;;;6.73;100.00
43364;BME280;40636;52.424;-1.948;2023-04-12T12:37:27;96831.72;;;6.48;100.00
43364;BME280;40636;52.424;-1.948;2023-04-12T12:40:10;96836.13;;;6.30;100.00
43364;BME280;40636;52.424;-1.948;2023-04-12T12:42:52;96828.00;;;6.12;100.00
43364;BME280;40636;52.424;-1.948;2023-04-12T12:45:26;96826.03;;;5.98;100.00
43364;BME280;40636;52.424;-1.948;2023-04-12T12:47:57;96821.50;;;5.94;100.00
43364;BME280;40636;52.424;-1.948;2023-04-12T12:50:27;96811.31;;;5.99;100.00
43364;BME280;40636;52.424;-1.948;2023-04-12T12:52:55;96826.09;;;6.12;100.00
43364;BME280;40636;52.424;-1.948;2023-04-12T12:55:25;96815.06;;;6.03;100.00
43364;BME280;40636;52.424;-1.948;2023-04-12T12:57:54;96822.22;;;5.99;100.00
43364;BME280;40636;52.424;-1.948;2023-04-12T13:00:34;96814.66;;;5.96;100.00
43364;BME280;40636;52.424;-1.948;2023-04-12T13:03:03;96796.84;;;5.85;100.00
43364;BME280;40636;52.424;-1.948;2023-04-12T13:05:31;96812.16;;;5.81;100.00
43364;BME280;40636;52.424;-1.948;2023-04-12T13:07:59;96809.69;;;5.66;100.00
43364;BME280;40636;52.424;-1.948;2023-04-12T13:10:26;96806.81;;;5.57;100.00
43364;BME280;40636;52.424;-1.948;2023-04-12T13:12:55;96812.09;;;5.48;100.00
43364;BME280;40636;52.424;-1.948;2023-04-12T13:15:22;96810.94;;;5.54;100.00
43364;BME280;40636;52.424;-1.948;2023-04-12T13:17:51;96802.97;;;5.58;100.00
43364;BME280;40636;52.424;-1.948;2023-04-12T13:20:22;96803.13;;;5.67;100.00
43364;BME280;40636;52.424;-1.948;2023-04-12T13:22:50;96810.34;;;5.95;100.00
43364;BME280;40636;52.424;-1.948;2023-04-12T13:25:19;96817.63;;;6.14;100.00
43364;BME280;40636;52.424;-1.948;2023-04-12T13:27:48;96820.28;;;6.19;100.00
43364;BME280;40636;52.424;-1.948;2023-04-12T13:30:17;96820.56;;;6.17;100.00
43364;BME280;40636;52.424;-1.948;2023-04-12T13:32:45;96822.47;;;6.17;100.00
43364;BME280;40636;52.424;-1.948;2023-04-12T13:35:14;96806.22;;;6.12;100.00